Aviation Digital Data Service (ADDS)

Output produced by METARs form (0223 UTC 30 May 2015)
found at http://aviationweather.gov/adds/metars/
 
KGFL 292322Z 3000/3024 20004KT P6SM BKN250 
     FM300800 20004KT P6SM BKN100 
     FM301500 18010G19KT P6SM BKN100 
     FM302100 21010KT P6SM -SHRA OVC045